PWSweather.com
Personal Weather Stations
Station Observations
CANDIOTINO
Barrio Candioti Norte, Santa FeAR 3000

Barrio Candioti NorteSanta FeAR 3000

Lat: -31.632778, Lon: -60.695556

Elevation: 69

Station Type: WH-1081

http://www.eltiempoensantafe.com.ar

High Low Average
Temperature 56.5°F13.6°C 41.0°F5.0°C 47.2°F8.4°C
Dew Point 41.2°F5.1°C 36.5°F2.5°C 39.1°F3.9°C
Winds 13.6 mph 21.9 kmh Calm Calm 6.0 mph SSE9.7 kmh SSE
Wind Gusts 23.5 mph37.8 kmh 0.7 mph1.1 kmh 12.0 mph19.3 kmh
Humidity 85% 56% 74%
Pressure 30.25 in1024.4 mb 30.11 in1019.6 mb -
Precipitation 0.00 in0.0 mm - -
Hour Temp Dew Point Humidity Winds Wind Gusts Pressure Precip Precip Rate Daily Precip Total
12:00 AM 48.0°F8.9°C 41.2°F5.1°C 77% 9.2 mph S14.8 kmh S 17.4 mph28.0 kmh 30.15 in1021.0 mb 0.00 in0.0 mm 0.00 in0.0 mm 0.00 in0.0 mm
12:15 AM 48.2°F9.0°C 40.7°F4.8°C 75% 8.3 mph S13.4 kmh S 19.7 mph31.7 kmh 30.15 in1021.0 mb 0.00 in0.0 mm 0.00 in0.0 mm 0.00 in0.0 mm
12:30 AM 48.0°F8.9°C 40.5°F4.7°C 75% 7.6 mph SSW12.2 kmh SSW 22.1 mph35.6 kmh 30.15 in1021.0 mb 0.00 in0.0 mm 0.00 in0.0 mm 0.00 in0.0 mm
12:45 AM 47.8°F8.8°C 40.3°F4.6°C 75% 9.2 mph S14.8 kmh S 20.6 mph33.2 kmh 30.16 in1021.3 mb 0.00 in0.0 mm 0.00 in0.0 mm 0.00 in0.0 mm
01:00 AM 47.5°F8.6°C 40.0°F4.4°C 75% 13.0 mph SSE20.9 kmh SSE 19.7 mph31.7 kmh 30.16 in1021.3 mb 0.00 in0.0 mm 0.00 in0.0 mm 0.00 in0.0 mm
01:15 AM 47.3°F8.5°C 39.8°F4.3°C 75% 12.1 mph SSE19.5 kmh SSE 21.3 mph34.3 kmh 30.16 in1021.3 mb 0.00 in0.0 mm 0.00 in0.0 mm 0.00 in0.0 mm
01:30 AM 46.9°F8.3°C 39.4°F4.1°C 75% 9.2 mph SSW14.8 kmh SSW 19.0 mph30.6 kmh 30.16 in1021.3 mb 0.00 in0.0 mm 0.00 in0.0 mm 0.00 in0.0 mm
01:45 AM 46.6°F8.1°C 39.4°F4.1°C 76% 7.6 mph S12.2 kmh S 20.6 mph33.2 kmh 30.17 in1021.7 mb 0.00 in0.0 mm 0.00 in0.0 mm 0.00 in0.0 mm
02:00 AM 46.0°F7.8°C 38.6°F3.7°C 75% 13.6 mph S21.9 kmh S 22.8 mph36.7 kmh 30.17 in1021.7 mb 0.00 in0.0 mm 0.00 in0.0 mm 0.00 in0.0 mm
02:15 AM 45.5°F7.5°C 38.0°F3.3°C 75% 9.2 mph S14.8 kmh S 18.3 mph29.5 kmh 30.17 in1021.7 mb 0.00 in0.0 mm 0.00 in0.0 mm 0.00 in0.0 mm
02:30 AM 45.3°F7.4°C 38.9°F3.8°C 78% 7.6 mph S12.2 kmh S 17.4 mph28.0 kmh 30.17 in1021.7 mb 0.00 in0.0 mm 0.00 in0.0 mm 0.00 in0.0 mm
02:45 AM 45.0°F7.2°C 38.5°F3.6°C 78% 6.9 mph SW11.1 kmh SW 15.2 mph24.5 kmh 30.17 in1021.7 mb 0.00 in0.0 mm 0.00 in0.0 mm 0.00 in0.0 mm
03:00 AM 44.6°F7.0°C 38.5°F3.6°C 79% 13.0 mph SSW20.9 kmh SSW 16.8 mph27.0 kmh 30.16 in1021.3 mb 0.00 in0.0 mm 0.00 in0.0 mm 0.00 in0.0 mm
03:15 AM 44.2°F6.8°C 38.8°F3.8°C 81% 9.8 mph S15.8 kmh S 14.5 mph23.3 kmh 30.15 in1021.0 mb 0.00 in0.0 mm 0.00 in0.0 mm 0.00 in0.0 mm
03:30 AM 44.2°F6.8°C 38.5°F3.6°C 80% 6.9 mph S11.1 kmh S 20.6 mph33.2 kmh 30.16 in1021.3 mb 0.00 in0.0 mm 0.00 in0.0 mm 0.00 in0.0 mm
03:45 AM 43.9°F6.6°C 38.4°F3.6°C 81% 8.3 mph S13.4 kmh S 17.4 mph28.0 kmh 30.16 in1021.3 mb 0.00 in0.0 mm 0.00 in0.0 mm 0.00 in0.0 mm
04:00 AM 43.7°F6.5°C 38.3°F3.5°C 81% 10.7 mph S17.2 kmh S 17.4 mph28.0 kmh 30.17 in1021.7 mb 0.00 in0.0 mm 0.00 in0.0 mm 0.00 in0.0 mm
04:15 AM 43.5°F6.4°C 38.1°F3.4°C 81% 9.2 mph S14.8 kmh S 23.5 mph37.8 kmh 30.16 in1021.3 mb 0.00 in0.0 mm 0.00 in0.0 mm 0.00 in0.0 mm
04:30 AM 43.2°F6.2°C 37.7°F3.2°C 81% 13.6 mph S21.9 kmh S 22.1 mph35.6 kmh 30.16 in1021.3 mb 0.00 in0.0 mm 0.00 in0.0 mm 0.00 in0.0 mm
04:45 AM 43.0°F6.1°C 37.2°F2.9°C 80% 9.8 mph S15.8 kmh S 23.5 mph37.8 kmh 30.17 in1021.7 mb 0.00 in0.0 mm 0.00 in0.0 mm 0.00 in0.0 mm
05:00 AM 43.0°F6.1°C 37.6°F3.1°C 81% 10.7 mph S17.2 kmh S 16.8 mph27.0 kmh 30.16 in1021.3 mb 0.00 in0.0 mm 0.00 in0.0 mm 0.00 in0.0 mm
05:15 AM 42.4°F5.8°C 37.3°F2.9°C 82% 10.7 mph S17.2 kmh S 19.7 mph31.7 kmh 30.16 in1021.3 mb 0.00 in0.0 mm 0.00 in0.0 mm 0.00 in0.0 mm
05:30 AM 42.4°F5.8°C 37.7°F3.2°C 83% 11.4 mph S18.3 kmh S 22.1 mph35.6 kmh 30.16 in1021.3 mb 0.00 in0.0 mm 0.00 in0.0 mm 0.00 in0.0 mm
05:45 AM 42.3°F5.7°C 37.5°F3.1°C 83% 8.3 mph S13.4 kmh S 20.6 mph33.2 kmh 30.16 in1021.3 mb 0.00 in0.0 mm 0.00 in0.0 mm 0.00 in0.0 mm
06:00 AM 41.9°F5.5°C 37.1°F2.8°C 83% 10.7 mph SSW17.2 kmh SSW 20.6 mph33.2 kmh 30.17 in1021.7 mb 0.00 in0.0 mm 0.00 in0.0 mm 0.00 in0.0 mm
06:15 AM 41.4°F5.2°C 36.9°F2.7°C 84% 6.9 mph S11.1 kmh S 15.2 mph24.5 kmh 30.17 in1021.7 mb 0.00 in0.0 mm 0.00 in0.0 mm 0.00 in0.0 mm
06:30 AM 41.0°F5.0°C 36.5°F2.5°C 84% 3.8 mph S6.1 kmh S 14.5 mph23.3 kmh 30.18 in1022.0 mb 0.00 in0.0 mm 0.00 in0.0 mm 0.00 in0.0 mm
06:45 AM 41.2°F5.1°C 37.0°F2.8°C 85% 7.6 mph SW12.2 kmh SW 15.2 mph24.5 kmh 30.19 in1022.4 mb 0.00 in0.0 mm 0.00 in0.0 mm 0.00 in0.0 mm
07:00 AM 41.4°F5.2°C 37.2°F2.9°C 85% 8.3 mph S13.4 kmh S 13.6 mph21.9 kmh 30.19 in1022.4 mb 0.00 in0.0 mm 0.00 in0.0 mm 0.00 in0.0 mm
07:15 AM 41.2°F5.1°C 37.0°F2.8°C 85% 10.7 mph S17.2 kmh S 19.0 mph30.6 kmh 30.19 in1022.4 mb 0.00 in0.0 mm 0.00 in0.0 mm 0.00 in0.0 mm
07:30 AM 41.2°F5.1°C 37.0°F2.8°C 85% 9.2 mph S14.8 kmh S 14.5 mph23.3 kmh 30.20 in1022.7 mb 0.00 in0.0 mm 0.00 in0.0 mm 0.00 in0.0 mm
07:45 AM 41.2°F5.1°C 37.0°F2.8°C 85% 9.8 mph SSE15.8 kmh SSE 14.5 mph23.3 kmh 30.21 in1023.0 mb 0.00 in0.0 mm 0.00 in0.0 mm 0.00 in0.0 mm
08:00 AM 41.2°F5.1°C 36.7°F2.6°C 84% 7.6 mph S12.2 kmh S 17.4 mph28.0 kmh 30.21 in1023.0 mb 0.00 in0.0 mm 0.00 in0.0 mm 0.00 in0.0 mm
08:15 AM 41.4°F5.2°C 36.9°F2.7°C 84% 9.2 mph S14.8 kmh S 15.2 mph24.5 kmh 30.22 in1023.4 mb 0.00 in0.0 mm 0.00 in0.0 mm 0.00 in0.0 mm
08:30 AM 41.5°F5.3°C 37.1°F2.8°C 84% 7.6 mph S12.2 kmh S 14.5 mph23.3 kmh 30.22 in1023.4 mb 0.00 in0.0 mm 0.00 in0.0 mm 0.00 in0.0 mm
08:45 AM 42.1°F5.6°C 37.6°F3.1°C 84% 9.2 mph S14.8 kmh S 14.5 mph23.3 kmh 30.22 in1023.4 mb 0.00 in0.0 mm 0.00 in0.0 mm 0.00 in0.0 mm
09:00 AM 42.6°F5.9°C 37.8°F3.2°C 83% 6.0 mph SSE9.7 kmh SSE 13.6 mph21.9 kmh 30.22 in1023.4 mb 0.00 in0.0 mm 0.00 in0.0 mm 0.00 in0.0 mm
09:15 AM 43.2°F6.2°C 38.0°F3.3°C 82% 5.4 mph SSW8.7 kmh SSW 13.6 mph21.9 kmh 30.22 in1023.4 mb 0.00 in0.0 mm 0.00 in0.0 mm 0.00 in0.0 mm
09:30 AM 43.7°F6.5°C 38.6°F3.7°C 82% 6.0 mph S9.7 kmh S 10.7 mph17.2 kmh 30.22 in1023.4 mb 0.00 in0.0 mm 0.00 in0.0 mm 0.00 in0.0 mm
09:45 AM 44.1°F6.7°C 38.6°F3.7°C 81% 6.0 mph S9.7 kmh S 14.5 mph23.3 kmh 30.22 in1023.4 mb 0.00 in0.0 mm 0.00 in0.0 mm 0.00 in0.0 mm
10:00 AM 44.8°F7.1°C 38.7°F3.7°C 79% 1.6 mph SW2.6 kmh SW 13.0 mph20.9 kmh 30.23 in1023.7 mb 0.00 in0.0 mm 0.00 in0.0 mm 0.00 in0.0 mm
10:15 AM 45.0°F7.2°C 38.5°F3.6°C 78% 7.6 mph SSW12.2 kmh SSW 11.4 mph18.3 kmh 30.23 in1023.7 mb 0.00 in0.0 mm 0.00 in0.0 mm 0.00 in0.0 mm
10:30 AM 45.5°F7.5°C 39.0°F3.9°C 78% 3.1 mph SW5.0 kmh SW 9.8 mph15.8 kmh 30.24 in1024.0 mb 0.00 in0.0 mm 0.00 in0.0 mm 0.00 in0.0 mm
10:45 AM 46.4°F8.0°C 39.6°F4.2°C 77% 3.1 mph SSW5.0 kmh SSW 9.2 mph14.8 kmh 30.25 in1024.4 mb 0.00 in0.0 mm 0.00 in0.0 mm 0.00 in0.0 mm
11:00 AM 47.5°F8.6°C 40.6°F4.8°C 77% 0.7 mph SSW1.1 kmh SSW 9.8 mph15.8 kmh 30.24 in1024.0 mb 0.00 in0.0 mm 0.00 in0.0 mm 0.00 in0.0 mm
11:15 AM 48.0°F8.9°C 40.5°F4.7°C 75% 5.4 mph S8.7 kmh S 13.0 mph20.9 kmh 30.24 in1024.0 mb 0.00 in0.0 mm 0.00 in0.0 mm 0.00 in0.0 mm
11:30 AM 48.2°F9.0°C 40.0°F4.4°C 73% 7.6 mph S12.2 kmh S 13.0 mph20.9 kmh 30.24 in1024.0 mb 0.00 in0.0 mm 0.00 in0.0 mm 0.00 in0.0 mm
11:45 AM 48.2°F9.0°C 39.6°F4.2°C 72% 3.1 mph S5.0 kmh S 13.0 mph20.9 kmh 30.24 in1024.0 mb 0.00 in0.0 mm 0.00 in0.0 mm 0.00 in0.0 mm
12:00 PM 48.6°F9.2°C 39.6°F4.2°C 71% 5.4 mph S8.7 kmh S 12.1 mph19.5 kmh 30.24 in1024.0 mb 0.00 in0.0 mm 0.00 in0.0 mm 0.00 in0.0 mm
12:15 PM 49.1°F9.5°C 40.1°F4.5°C 71% 4.5 mph S7.2 kmh S 10.7 mph17.2 kmh 30.23 in1023.7 mb 0.00 in0.0 mm 0.00 in0.0 mm 0.00 in0.0 mm
12:30 PM 48.7°F9.3°C 39.8°F4.3°C 71% 6.9 mph S11.1 kmh S 13.6 mph21.9 kmh 30.23 in1023.7 mb 0.00 in0.0 mm 0.00 in0.0 mm 0.00 in0.0 mm
12:45 PM 48.9°F9.4°C 39.2°F4.0°C 69% 6.9 mph SSE11.1 kmh SSE 13.6 mph21.9 kmh 30.22 in1023.4 mb 0.00 in0.0 mm 0.00 in0.0 mm 0.00 in0.0 mm
01:00 PM 49.1°F9.5°C 39.4°F4.1°C 69% 4.5 mph S7.2 kmh S 12.1 mph19.5 kmh 30.21 in1023.0 mb 0.00 in0.0 mm 0.00 in0.0 mm 0.00 in0.0 mm
01:15 PM 49.1°F9.5°C 39.4°F4.1°C 69% 10.7 mph S17.2 kmh S 15.2 mph24.5 kmh 30.21 in1023.0 mb 0.00 in0.0 mm 0.00 in0.0 mm 0.00 in0.0 mm
01:30 PM 49.6°F9.8°C 39.5°F4.2°C 68% 3.8 mph SSW6.1 kmh SSW 12.1 mph19.5 kmh 30.21 in1023.0 mb 0.00 in0.0 mm 0.00 in0.0 mm 0.00 in0.0 mm
01:45 PM 50.5°F10.3°C 39.6°F4.2°C 66% 9.2 mph S14.8 kmh S 12.1 mph19.5 kmh 30.20 in1022.7 mb 0.00 in0.0 mm 0.00 in0.0 mm 0.00 in0.0 mm
02:00 PM 50.7°F10.4°C 39.8°F4.3°C 66% 6.0 mph S9.7 kmh S 13.0 mph20.9 kmh 30.19 in1022.4 mb 0.00 in0.0 mm 0.00 in0.0 mm 0.00 in0.0 mm
02:15 PM 52.5°F11.4°C 40.3°F4.6°C 63% 3.8 mph S6.1 kmh S 12.1 mph19.5 kmh 30.18 in1022.0 mb 0.00 in0.0 mm 0.00 in0.0 mm 0.00 in0.0 mm
02:30 PM 51.6°F10.9°C 39.8°F4.3°C 64% 6.9 mph S11.1 kmh S 10.7 mph17.2 kmh 30.17 in1021.7 mb 0.00 in0.0 mm 0.00 in0.0 mm 0.00 in0.0 mm
02:45 PM 50.4°F10.2°C 39.1°F3.9°C 65% 2.2 mph SSE3.5 kmh SSE 15.9 mph25.6 kmh 30.17 in1021.7 mb 0.00 in0.0 mm 0.00 in0.0 mm 0.00 in0.0 mm
03:00 PM 51.1°F10.6°C 39.3°F4.1°C 64% 4.5 mph S7.2 kmh S 12.1 mph19.5 kmh 30.17 in1021.7 mb 0.00 in0.0 mm 0.00 in0.0 mm 0.00 in0.0 mm
03:15 PM 52.5°F11.4°C 40.3°F4.6°C 63% 3.8 mph S6.1 kmh S 9.8 mph15.8 kmh 30.17 in1021.7 mb 0.00 in0.0 mm 0.00 in0.0 mm 0.00 in0.0 mm
03:30 PM 54.0°F12.2°C 40.8°F4.9°C 61% 7.6 mph S12.2 kmh S 13.0 mph20.9 kmh 30.17 in1021.7 mb 0.00 in0.0 mm 0.00 in0.0 mm 0.00 in0.0 mm
03:45 PM 53.4°F11.9°C 40.3°F4.6°C 61% 3.8 mph SSW6.1 kmh SSW 12.1 mph19.5 kmh 30.17 in1021.7 mb 0.00 in0.0 mm 0.00 in0.0 mm 0.00 in0.0 mm
04:00 PM 53.6°F12.0°C 39.2°F4.0°C 58% 7.6 mph S12.2 kmh S 14.5 mph23.3 kmh 30.16 in1021.3 mb 0.00 in0.0 mm 0.00 in0.0 mm 0.00 in0.0 mm
04:15 PM 53.6°F12.0°C 39.2°F4.0°C 58% 6.0 mph S9.7 kmh S 13.0 mph20.9 kmh 30.16 in1021.3 mb 0.00 in0.0 mm 0.00 in0.0 mm 0.00 in0.0 mm
04:30 PM 54.1°F12.3°C 39.3°F4.1°C 57% 6.9 mph S11.1 kmh S 13.6 mph21.9 kmh 30.16 in1021.3 mb 0.00 in0.0 mm 0.00 in0.0 mm 0.00 in0.0 mm
04:45 PM 55.0°F12.8°C 39.6°F4.2°C 56% 3.8 mph S6.1 kmh S 12.1 mph19.5 kmh 30.14 in1020.7 mb 0.00 in0.0 mm 0.00 in0.0 mm 0.00 in0.0 mm
05:00 PM 55.8°F13.2°C 40.3°F4.6°C 56% 3.8 mph S6.1 kmh S 10.7 mph17.2 kmh 30.15 in1021.0 mb 0.00 in0.0 mm 0.00 in0.0 mm 0.00 in0.0 mm
05:15 PM 55.0°F12.8°C 39.6°F4.2°C 56% 4.5 mph S7.2 kmh S 12.1 mph19.5 kmh 30.14 in1020.7 mb 0.00 in0.0 mm 0.00 in0.0 mm 0.00 in0.0 mm
05:30 PM 55.8°F13.2°C 40.3°F4.6°C 56% 2.2 mph SSE3.5 kmh SSE 9.2 mph14.8 kmh 30.14 in1020.7 mb 0.00 in0.0 mm 0.00 in0.0 mm 0.00 in0.0 mm
05:45 PM 56.5°F13.6°C 41.0°F5.0°C 56% 3.8 mph SSE6.1 kmh SSE 6.0 mph9.7 kmh 30.14 in1020.7 mb 0.00 in0.0 mm 0.00 in0.0 mm 0.00 in0.0 mm
06:00 PM 55.6°F13.1°C 40.6°F4.8°C 57% 2.2 mph SE3.5 kmh SE 6.0 mph9.7 kmh 30.13 in1020.3 mb 0.00 in0.0 mm 0.00 in0.0 mm 0.00 in0.0 mm
06:15 PM 53.1°F11.7°C 40.0°F4.4°C 61% 2.2 mph S3.5 kmh S 6.0 mph9.7 kmh 30.12 in1020.0 mb 0.00 in0.0 mm 0.00 in0.0 mm 0.00 in0.0 mm
06:30 PM 51.3°F10.7°C 39.5°F4.2°C 64% 2.2 mph ESE3.5 kmh ESE 4.5 mph7.2 kmh 30.14 in1020.7 mb 0.00 in0.0 mm 0.00 in0.0 mm 0.00 in0.0 mm
06:45 PM 50.2°F10.1°C 38.9°F3.8°C 65% Calm Calm 3.8 mph6.1 kmh 30.13 in1020.3 mb 0.00 in0.0 mm 0.00 in0.0 mm 0.00 in0.0 mm
07:00 PM 49.6°F9.8°C 39.5°F4.2°C 68% 1.6 mph ESE2.6 kmh ESE 2.2 mph3.5 kmh 30.13 in1020.3 mb 0.00 in0.0 mm 0.00 in0.0 mm 0.00 in0.0 mm
07:15 PM 49.1°F9.5°C 39.0°F3.9°C 68% Calm Calm 1.6 mph2.6 kmh 30.12 in1020.0 mb 0.00 in0.0 mm 0.00 in0.0 mm 0.00 in0.0 mm
07:30 PM 48.2°F9.0°C 38.5°F3.6°C 69% Calm Calm 0.7 mph1.1 kmh 30.14 in1020.7 mb 0.00 in0.0 mm 0.00 in0.0 mm 0.00 in0.0 mm
07:45 PM 48.6°F9.2°C 40.0°F4.4°C 72% 0.7 mph E1.1 kmh E 2.2 mph3.5 kmh 30.13 in1020.3 mb 0.00 in0.0 mm 0.00 in0.0 mm 0.00 in0.0 mm
08:00 PM 48.7°F9.3°C 39.8°F4.3°C 71% 1.6 mph SE2.6 kmh SE 3.1 mph5.0 kmh 30.13 in1020.3 mb 0.00 in0.0 mm 0.00 in0.0 mm 0.00 in0.0 mm
08:15 PM 48.2°F9.0°C 39.2°F4.0°C 71% Calm Calm 1.6 mph2.6 kmh 30.13 in1020.3 mb 0.00 in0.0 mm 0.00 in0.0 mm 0.00 in0.0 mm
08:30 PM 47.7°F8.7°C 39.8°F4.3°C 74% 0.7 mph SE1.1 kmh SE 1.6 mph2.6 kmh 30.12 in1020.0 mb 0.00 in0.0 mm 0.00 in0.0 mm 0.00 in0.0 mm
08:45 PM 47.5°F8.6°C 39.6°F4.2°C 74% 0.7 mph SE1.1 kmh SE 1.6 mph2.6 kmh 30.11 in1019.6 mb 0.00 in0.0 mm 0.00 in0.0 mm 0.00 in0.0 mm
09:00 PM 47.7°F8.7°C 40.1°F4.5°C 75% Calm Calm 2.2 mph3.5 kmh 30.12 in1020.0 mb 0.00 in0.0 mm 0.00 in0.0 mm 0.00 in0.0 mm
09:15 PM 47.5°F8.6°C 40.0°F4.4°C 75% 0.7 mph SE1.1 kmh SE 3.1 mph5.0 kmh 30.12 in1020.0 mb 0.00 in0.0 mm 0.00 in0.0 mm 0.00 in0.0 mm
09:30 PM 47.3°F8.5°C 40.1°F4.5°C 76% 0.7 mph ESE1.1 kmh ESE 2.2 mph3.5 kmh 30.12 in1020.0 mb 0.00 in0.0 mm 0.00 in0.0 mm 0.00 in0.0 mm
09:45 PM 46.8°F8.2°C 39.6°F4.2°C 76% Calm Calm 1.6 mph2.6 kmh 30.13 in1020.3 mb 0.00 in0.0 mm 0.00 in0.0 mm 0.00 in0.0 mm
10:00 PM 46.2°F7.9°C 39.4°F4.1°C 77% Calm Calm 1.6 mph2.6 kmh 30.12 in1020.0 mb 0.00 in0.0 mm 0.00 in0.0 mm 0.00 in0.0 mm
10:15 PM 46.4°F8.0°C 39.6°F4.2°C 77% Calm Calm 2.2 mph3.5 kmh 30.12 in1020.0 mb 0.00 in0.0 mm 0.00 in0.0 mm 0.00 in0.0 mm
10:30 PM 46.4°F8.0°C 39.9°F4.4°C 78% Calm Calm 3.1 mph5.0 kmh 30.12 in1020.0 mb 0.00 in0.0 mm 0.00 in0.0 mm 0.00 in0.0 mm
10:45 PM 45.7°F7.6°C 39.2°F4.0°C 78% Calm Calm 1.6 mph2.6 kmh 30.12 in1020.0 mb 0.00 in0.0 mm 0.00 in0.0 mm 0.00 in0.0 mm
11:00 PM 45.5°F7.5°C 39.4°F4.1°C 79% Calm Calm 2.2 mph3.5 kmh 30.11 in1019.6 mb 0.00 in0.0 mm 0.00 in0.0 mm 0.00 in0.0 mm
11:15 PM 45.1°F7.3°C 39.3°F4.1°C 80% Calm Calm 0.7 mph1.1 kmh 30.11 in1019.6 mb 0.00 in0.0 mm 0.00 in0.0 mm 0.00 in0.0 mm
11:30 PM 44.6°F7.0°C 39.1°F3.9°C 81% Calm Calm 1.6 mph2.6 kmh 30.11 in1019.6 mb 0.00 in0.0 mm 0.00 in0.0 mm 0.00 in0.0 mm
11:45 PM 44.4°F6.9°C 39.6°F4.2°C 83% 0.7 mph N1.1 kmh N 1.6 mph2.6 kmh 30.11 in1019.6 mb 0.00 in0.0 mm 0.00 in0.0 mm 0.00 in0.0 mm